Flight Track Log - Related Links

Times and Time Zones

All times are in EDT time to prevent confusion due to time zone crossing. See the UAL4295 flight status page for this flight to view local times or setup timezone preferences in your user account.

Time Position Orientation Groundspeed Altitude Reporting Facility
EDT Latitude Longitude Course Direction KTS MPH feet Rate Location/Type
Thu 09:13:04 PM 40.6500 -74.2167 276° West 187 215 2,000  Level New York TRACON
Thu 09:14:04 PM 40.6833 -74.2667 311° West 256 295 3,900 2,424 Climbing New York TRACON
Thu 09:16:27 PM 40.7389 -74.4794 289° West 249 287 10,200 2,059 Climbing New York Center
Thu 09:17:28 PM 40.7500 -74.5842 278° West 271 312 10,900 1,041 Climbing New York Center
Thu 09:18:00 PM 40.7633 -74.8727 276° West  Level FlightAware Approximate
Thu 09:18:28 PM 40.7631 -74.6944 279° West 322 371 12,300  Level New York Center
Thu 09:19:27 PM 40.7753 -74.8239 277° West 334 384 14,700 2,017 Climbing New York Center
Thu 09:20:27 PM 40.7858 -74.9425 277° West 334 384 16,300 1,438 Climbing New York Center
Thu 09:21:28 PM 40.7900 -75.0550 273° West 334 384 17,600 1,415 Climbing New York Center
Thu 09:22:30 PM 40.7653 -75.1658 254° West 324 373 19,200 1,765 Climbing New York Center
Thu 09:23:27 PM 40.7383 -75.2736 252° West 324 373 21,100 1,815 Climbing New York Center
Thu 09:24:29 PM 40.7111 -75.3842 252° West 319 367 22,800 1,900 Climbing New York Center
Thu 09:25:27 PM 40.6861 -75.4892 253° West 319 367 24,900 1,916 Climbing New York Center
Thu 09:26:28 PM 40.6611 -75.5914 252° West 312 359 26,600 1,636 Climbing New York Center
Thu 09:27:28 PM 40.6383 -75.6883 253° West 300 345 28,200 1,361 Climbing New York Center
Thu 09:28:27 PM 40.6114 -75.7875 250° West 295 339 29,300 1,000 Climbing New York Center
Thu 09:29:28 PM 40.5800 -75.8836 247° West 295 339 30,200 934 Climbing New York Center
Thu 09:30:29 PM 40.5358 -75.9867 241° Southwest 305 351 31,200 1,008 Climbing New York Center
Thu 09:31:27 PM 40.5000 -76.0906 246° West 317 365 32,200 1,000 Climbing New York Center
Thu 09:32:29 PM 40.4600 -76.1911 242° Southwest 317 365 33,200 1,000 Climbing New York Center
Thu 09:33:27 PM 40.4175 -76.2997 243° Southwest 312 359 34,200 1,008 Climbing New York Center
Thu 09:34:28 PM 40.3794 -76.3975 243° Southwest 312 359 35,200 787 Climbing New York Center
Thu 09:35:29 PM 40.3414 -76.4950 243° Southwest 312 359 35,800 397 Climbing New York Center
Thu 09:36:29 PM 40.3011 -76.5978 243° Southwest 312 359 36,000 102 Climbing New York Center
Thu 09:37:27 PM 40.2606 -76.7006 243° Southwest 318 366 36,000  Level New York Center
Thu 09:38:28 PM 40.2175 -76.8111 243° Southwest 325 374 36,000  Level New York Center
Thu 09:39:28 PM 40.1697 -76.9239 241° Southwest 341 392 36,000  Level New York Center
Thu 09:40:29 PM 40.1269 -77.0286 242° Southwest 353 406 36,000  Level New York Center
Thu 09:41:28 PM 40.1172 -77.1664 265° West 368 423 36,000  Level New York Center
Thu 09:43:50 PM 40.1172 -77.5042 270° West 392 451 36,000  Level Cleveland Center
Thu 09:44:50 PM 40.1147 -77.6456 269° West 398 458 36,000  Level Cleveland Center
Thu 09:45:50 PM 40.1125 -77.8086 269° West 408 470 36,000  Level Cleveland Center
Thu 09:46:50 PM 40.1075 -77.9444 267° West 408 470 36,000  Level Cleveland Center
Thu 09:47:50 PM 40.1044 -78.0886 268° West 408 470 36,000  Level Cleveland Center
Thu 09:48:50 PM 40.1011 -78.2297 268° West 403 464 36,000  Level Cleveland Center
Thu 09:49:50 PM 40.0978 -78.3711 268° West 403 464 36,000  Level Cleveland Center
Thu 09:50:50 PM 40.0942 -78.5150 268° West 403 464 36,000  Level Cleveland Center
Thu 09:51:50 PM 40.0906 -78.6592 268° West 403 464 36,000  Level Cleveland Center
Thu 09:52:50 PM 40.0867 -78.8003 268° West 403 464 36,000  Level Cleveland Center
Thu 09:53:50 PM 40.0844 -78.9442 269° West 403 464 36,000  Level Cleveland Center
Thu 09:54:50 PM 40.0803 -79.0881 268° West 403 464 36,000  Level Cleveland Center
Thu 09:55:50 PM 40.0758 -79.2292 268° West 403 464 36,000  Level Cleveland Center
Thu 09:56:50 PM 40.0733 -79.3758 269° West 403 464 36,000  Level Cleveland Center
Thu 09:57:50 PM 40.0686 -79.5225 268° West 403 464 36,000  Level Cleveland Center
Thu 09:58:50 PM 40.0636 -79.6689 267° West 403 464 36,000  Level Cleveland Center
Thu 09:59:50 PM 40.0583 -79.8156 267° West 403 464 36,000  Level Cleveland Center
Thu 10:00:50 PM 40.0550 -79.9592 268° West 403 464 36,000  Level Cleveland Center
Thu 10:01:50 PM 40.0494 -80.1031 267° West 403 464 36,000  Level Cleveland Center
Thu 10:02:50 PM 40.0439 -80.2603 267° West 403 464 36,000  Level Cleveland Center
Thu 10:03:50 PM 40.0358 -80.4069 266° West 403 464 36,000  Level Cleveland Center
Thu 10:04:50 PM 40.0317 -80.5478 268° West 403 464 36,000  Level Cleveland Center
Thu 10:05:50 PM 40.0256 -80.6917 267° West 403 464 36,000  Level Cleveland Center
Thu 10:08:15 PM 40.0144 -81.0200 268° West 386 444 36,000  Level Indianapolis Center
Thu 10:09:16 PM 40.0119 -81.1622 269° West 390 449 36,000  Level Indianapolis Center
Thu 10:10:17 PM 40.0097 -81.3058 269° West 391 450 36,000  Level Indianapolis Center
Thu 10:11:18 PM 40.0072 -81.4469 269° West 388 447 36,000  Level Indianapolis Center
Thu 10:12:19 PM 40.0044 -81.5894 269° West 388 447 36,000  Level Indianapolis Center
Thu 10:13:20 PM 40.0011 -81.7328 268° West 390 449 36,000 -49 Level Indianapolis Center
Thu 10:14:22 PM 39.9983 -81.8789 269° West 390 449 35,900  Descending Indianapolis Center
Thu 10:15:23 PM 39.9950 -82.0178 268° West 380 437 36,000 49 Climbing Indianapolis Center
Thu 10:16:24 PM 39.9917 -82.1569 268° West 380 437 36,000  Level Indianapolis Center
Thu 10:17:25 PM 39.9878 -82.2925 268° West 372 428 36,000  Level Indianapolis Center
Thu 10:18:26 PM 39.9847 -82.4275 268° West 371 427 36,000  Level Indianapolis Center
Thu 10:19:27 PM 39.9808 -82.5631 268° West 372 428 36,000  Level Indianapolis Center
Thu 10:20:29 PM 39.9767 -82.6956 268° West 366 421 36,000  Level Indianapolis Center
Thu 10:21:30 PM 39.9731 -82.8319 268° West 372 428 36,000  Level Indianapolis Center
Thu 10:22:31 PM 39.9686 -82.9653 268° West 367 422 36,000  Level Indianapolis Center
Thu 10:23:32 PM 39.9647 -83.0983 268° West 367 422 36,000  Level Indianapolis Center
Thu 10:24:33 PM 39.9611 -83.2539 268° West 367 422 36,000  Level Indianapolis Center
Thu 10:25:34 PM 39.9575 -83.3856 268° West 365 420 36,000  Level Indianapolis Center
Thu 10:26:35 PM 39.9522 -83.5156 267° West 365 420 36,000  Level Indianapolis Center
Thu 10:27:37 PM 39.9464 -83.6461 267° West 365 420 36,000  Level Indianapolis Center
Thu 10:28:38 PM 39.9428 -83.7778 268° West 363 418 36,000  Level Indianapolis Center
Thu 10:29:39 PM 39.9372 -83.9100 267° West 363 418 36,000  Level Indianapolis Center
Thu 10:30:40 PM 39.9317 -84.0408 267° West 361 415 36,000  Level Indianapolis Center
Thu 10:31:41 PM 39.9272 -84.1742 268° West 364 419 36,000  Level Indianapolis Center
Thu 10:32:42 PM 39.9211 -84.3075 267° West 365 420 36,000  Level Indianapolis Center
Thu 10:33:43 PM 39.9156 -84.4403 267° West 366 421 36,000  Level Indianapolis Center
Thu 10:34:44 PM 39.9081 -84.5728 266° West 365 420 36,000  Level Indianapolis Center
Thu 10:35:46 PM 39.9039 -84.7064 268° West 366 421 36,000  Level Indianapolis Center
Thu 10:36:47 PM 39.8956 -84.8611 266° West 367 422 36,000  Level Indianapolis Center
Thu 10:37:48 PM 39.8900 -84.9889 267° West 362 417 36,000  Level Indianapolis Center
Thu 10:38:49 PM 39.8828 -85.1194 266° West 360 414 36,000  Level Indianapolis Center
Thu 10:39:50 PM 39.8756 -85.2500 266° West 360 414 36,000  Level Indianapolis Center
Thu 10:40:51 PM 39.8708 -85.3819 267° West 363 418 36,000  Level Indianapolis Center
Thu 10:41:52 PM 39.8636 -85.5108 266° West 358 412 36,000  Level Indianapolis Center
Thu 10:42:54 PM 39.8658 -85.6381 271° West 353 406 36,000  Level Indianapolis Center
Thu 10:43:55 PM 39.8669 -85.7669 271° West 356 410 36,000  Level Indianapolis Center
Thu 10:44:56 PM 39.8683 -85.8942 271° West 353 406 36,000  Level Indianapolis Center
Thu 10:45:57 PM 39.8692 -86.0231 271° West 355 409 36,000  Level Indianapolis Center
Thu 10:46:58 PM 39.8700 -86.1500 271° West 353 406 36,000  Level Indianapolis Center
Thu 10:47:59 PM 39.8706 -86.2967 270° West 353 406 36,000  Level Indianapolis Center
Thu 10:49:01 PM 39.8719 -86.4222 271° West 351 404 36,000  Level Indianapolis Center
Thu 10:50:02 PM 39.8717 -86.5481 270° West 349 402 36,000  Level Indianapolis Center
Thu 10:51:03 PM 39.8722 -86.6739 270° West 348 400 36,000  Level Indianapolis Center
Thu 10:52:04 PM 39.8722 -86.8006 270° West 350 403 36,000  Level Indianapolis Center
Thu 10:53:05 PM 39.8728 -86.9269 270° West 350 403 36,000  Level Indianapolis Center
Thu 10:54:06 PM 39.8728 -87.0539 270° West 350 403 36,000  Level Indianapolis Center
Thu 10:55:08 PM 39.8719 -87.1814 270° West 349 402 36,000  Level Indianapolis Center
Thu 10:56:09 PM 39.8708 -87.3097 269° West 355 409 36,000  Level Indianapolis Center
Thu 10:57:10 PM 39.8711 -87.4589 270° West 352 405 36,000  Level Indianapolis Center
Thu 10:58:11 PM 39.8708 -87.5883 270° West 355 409 36,000  Level Indianapolis Center
Thu 10:59:12 PM 39.8703 -87.7178 270° West 357 411 36,000  Level Indianapolis Center
Thu 11:00:14 PM 39.8686 -87.8481 269° West 357 411 36,000  Level Indianapolis Center
Thu 11:01:15 PM 39.8681 -87.9792 270° West 360 414 36,000  Level Indianapolis Center
Thu 11:02:16 PM 39.8658 -88.1092 269° West 359 413 36,000  Level Indianapolis Center
Thu 11:03:17 PM 39.8647 -88.2403 269° West 359 413 36,000  Level Indianapolis Center
Thu 11:04:18 PM 39.8628 -88.3706 269° West 359 413 36,000  Level Indianapolis Center
Thu 11:05:31 PM 39.8611 -88.5128 269° West 353 406 36,000  Level Kansas City Center
Thu 11:06:31 PM 39.8606 -88.6383 270° West 349 402 36,000  Level Kansas City Center
Thu 11:07:32 PM 39.8583 -88.7647 269° West 347 399 36,000  Level Kansas City Center
Thu 11:08:36 PM 39.8556 -88.8911 268° West 348 400 36,000  Level Kansas City Center
Thu 11:09:36 PM 39.8531 -89.0156 269° West 346 398 36,000  Level Kansas City Center
Thu 11:10:37 PM 39.8506 -89.1683 269° West 349 402 36,000  Level Kansas City Center
Thu 11:11:37 PM 39.8486 -89.2944 269° West 348 400 36,000  Level Kansas City Center
Thu 11:12:38 PM 39.8447 -89.4203 268° West 349 402 36,000  Level Kansas City Center
Thu 11:13:39 PM 39.8433 -89.5478 269° West 350 403 36,000  Level Kansas City Center
Thu 11:14:40 PM 39.8397 -89.6761 268° West 353 406 36,000  Level Kansas City Center
Thu 11:15:44 PM 39.8408 -89.8025 271° West 351 404 36,000  Level Kansas City Center
Thu 11:16:45 PM 39.8422 -89.9303 271° West 352 405 36,000  Level Kansas City Center
Thu 11:17:45 PM 39.8436 -90.0583 271° West 353 406 36,000  Level Kansas City Center
Thu 11:18:47 PM 39.8444 -90.1875 271° West 355 409 36,000  Level Kansas City Center
Thu 11:19:49 PM 39.8456 -90.3178 271° West 357 411 36,000  Level Kansas City Center
Thu 11:20:50 PM 39.8464 -90.4464 271° West 357 411 36,000  Level Kansas City Center
Thu 11:21:51 PM 39.8464 -90.5756 270° West 356 410 36,000  Level Kansas City Center
Thu 11:22:51 PM 39.8475 -90.7031 271° West 354 407 36,000  Level Kansas City Center
Thu 11:23:52 PM 39.8472 -90.8564 270° West 353 406 36,000  Level Kansas City Center
Thu 11:24:53 PM 39.8486 -90.9836 271° West 352 405 36,000  Level Kansas City Center
Thu 11:25:56 PM 39.8481 -91.0925 270° West 341 392 36,000  Level Kansas City Center
Thu 11:26:56 PM 39.8481 -91.2103 270° West 332 382 36,000  Level Kansas City Center
Thu 11:27:57 PM 39.8458 -91.3306 269° West 332 382 36,000  Level Kansas City Center
Thu 11:28:57 PM 39.8342 -91.4750 264° West 336 387 36,000  Level Kansas City Center
Thu 11:30:01 PM 39.8250 -91.5964 264° West 339 390 36,000  Level Kansas City Center
Thu 11:31:01 PM 39.8150 -91.7169 264° West 337 388 36,000  Level Kansas City Center
Thu 11:32:02 PM 39.8067 -91.8375 265° West 337 388 36,000  Level Kansas City Center
Thu 11:33:02 PM 39.7975 -91.9586 264° West 337 388 36,000  Level Kansas City Center
Thu 11:34:05 PM 39.7869 -92.0811 264° West 341 392 36,000  Level Kansas City Center
Thu 11:35:06 PM 39.7781 -92.2025 265° West 340 391 36,000 -541 Level Kansas City Center
Thu 11:36:07 PM 39.7686 -92.3239 264° West 339 390 34,900 -1,475 Descending Kansas City Center
Thu 11:37:08 PM 39.7578 -92.4442 263° West 338 389 33,000 -1,850 Descending Kansas City Center
Thu 11:38:07 PM 39.7481 -92.5700 264° West 344 396 31,200 -1,805 Descending Kansas City Center
Thu 11:39:11 PM 39.7344 -92.7239 263° West 355 409 29,300 -2,032 Descending Kansas City Center
Thu 11:40:11 PM 39.7231 -92.8578 264° West 367 422 27,000 -2,168 Descending Kansas City Center
Thu 11:41:10 PM 39.7131 -92.9806 264° West 355 409 25,000 -1,854 Descending Kansas City Center
Thu 11:42:14 PM 39.7019 -93.1061 263° West 351 404 23,200 -1,742 Descending Kansas City Center
Thu 11:43:14 PM 39.6897 -93.2408 263° West 372 428 21,400 -1,884 Descending Kansas City Center
Thu 11:44:15 PM 39.6781 -93.3731 264° West 372 428 19,400 -1,854 Descending Kansas City Center
Thu 11:45:17 PM 39.6644 -93.5025 262° West 368 423 17,600 -1,902 Descending Kansas City Center
Thu 11:46:18 PM 39.6539 -93.6303 264° West 359 413 15,500 -2,100 Descending Kansas City Center
Thu 11:47:17 PM 39.6414 -93.7606 263° West 349 402 13,400 -2,150 Descending Kansas City Center
Thu 11:48:18 PM 39.6231 -93.8972 260° West 346 398 11,200 -1,597 Descending Kansas City Center
Thu 11:49:21 PM 39.5706 -93.9958 235° Southwest 345 397 10,100 -585 Descending Kansas City Center
Thu 11:50:21 PM 39.5222 -94.0944 238° Southwest 340 391 10,000 -49 Descending Kansas City Center
Thu 11:51:23 PM 39.5033 -94.2292 260° West 342 394 10,000 -150 Level Kansas City Center
Thu 11:52:21 PM 39.4889 -94.3272 259° West 283 326 9,700 -1,180 Descending Kansas City Center
Thu 11:53:25 PM 39.4758 -94.4158 259° West 263 303 7,600 -2,098 Descending Kansas City Center
Thu 11:54:24 PM 39.4664 -94.5222 263° West 267 307 5,400 -1,916 Descending Kansas City Center
Thu 11:55:24 PM 39.4600 -94.6111 265° West 260 299 3,800 -1,161 Descending Kansas City Center
Thu 11:56:28 PM 39.4197 -94.6681 228° Southwest 206 237 3,000 -672 Descending Kansas City Center
Thu 11:57:29 PM 39.3764 -94.6814 193° South 166 191 2,400 -590 Descending Kansas City Center

Login

Don't have an account? Register now (free) for customized features, flight alerts, and more!